Mooreville, Mississippi
Current Conditions -  °F | °C
As of 9:53 AM on Sunday 21 Dec 2014 (Local Time) from KTUP Reporting Station
Clear Clear  
Wind Chill: 44°   Ceiling: Unl
Heat Index: 44°   Visibility: 10mi
Dew Point: 33°   Wind: 3mph
Humidity: 65%   Direction: 40°NE
Pressure: 30.2"   Gusts: NA
Location:  34.27°N, 88.58°W
Report Text: KTUP 211553Z 04003KT 10SM CLR 07/01 A3020 RMK AO2 SLP228 T00670006
Loading
Personal Weather Stations






























Interactive Weather Map New forecast layout! Learn more

10-Day Weather Forecast

Advertisements
Track Severe Weather on mobile